Airfield :







YOU CAN JOIN US ON...

 
LOGIN :

Register | Disclaimer

   EN    FR    IT 

 









Legend :    VFR   Marginal VFR   IFR   Intensive IFR   Very Intensive IFR
Visi :
Ceiling :
>= 8 km
>= 3000ft
5 to 8 km
1000 to 3000 ft
1500m to 5 km
500 to 1000 ft
800 to 1500m
200 to 500 ft
< 800m
< 200 ft
Symbols :   Thunderstorms  Fog  Heavy snow  Heavy precipitations  Wind > 20 kt






- Airport Elevation : 328 ft


KGFL - Floyd Bennett Memorial

CURRENT METAR :
  • 281953Z AUTO 17005KT 10SM OVC007 08/07 A2993 RMK AO2 SLP142 T00780067

EXPIRED METARs :
  • 281853Z AUTO 20006KT 8SM OVC005 08/06 A2995 RMK AO2 RAE01 SLP147 P0000 T00780061
  • 281800Z AUTO 20005KT 4SM -RA BR OVC005 07/06 A2997 RMK AO2 P0000 T00670056
  • 281741Z AUTO 19003KT 3SM BR OVC004 07/06 A2997 RMK AO2 T00670056

TAF KGFL
Valid from the 28 at 20:00 until the 29 at 18:00 UTC


282006Z 2820/2918 VRB03KT P6SM OVC007
FM282100 21006KT P6SM BKN025
FM282300 21007KT P6SM BKN110
FM290500 00000KT P6SM BKN045
FM291600 00000KT P6SM OVC025
KZBW FIR / North America



MET'MAP, your aeronautical weather chart ! - Copyright ORBIFLY December 2007 - Disclaimer

ORBIFLY MET'MAP TEAM :

Programming & Development : Alexandra Zaïnal
Concept & original design : Baudouin d'Aumeries
Assistance for programming : Marc-Olivier Méhu
Technical & hardware support : Manuel Goepfert

Contact : metmap@orbifly.com




SOURCES & CREDITS :

   NOAA